This is the latest recevied weather packets stored in our database for station/object EA4IAJ-12. If no packets are shown the sender has not sent any weather packets the latest 10 day(s).
| Time | Temp. | Humidity | Pressure | Rain* | Wind** | Luminosity | Snow |
|---|---|---|---|---|---|---|---|
| 1787972794 | 13.33° C | 83% | 993 hPa | - | - | - | - |
| 1787971894 | 13.33° C | 80% | 992.5 hPa | - | - | - | - |
| 1787970993 | 13.33° C | 77% | 992.9 hPa | - | - | - | - |
| 1787970093 | 12.78° C | 73% | 990.7 hPa | - | - | - | - |
| 1787969192 | 13.33° C | 71% | 991.6 hPa | - | - | - | - |
| 1787968292 | 13.89° C | 68% | 992.9 hPa | - | - | - | - |
| 1787967391 | 13.89° C | 66% | 993.8 hPa | - | - | - | - |
| 1787966491 | 14.44° C | 64% | 995.4 hPa | - | - | - | - |
| 1787965590 | 15.56° C | 62% | 998.8 hPa | - | - | - | - |
| 1787964690 | 15.56° C | 60% | 999.1 hPa | - | - | - | - |
| 1787963789 | 15.56° C | 58% | 998.1 hPa | - | - | - | - |
| 1787962888 | 15.56° C | 55% | 997.8 hPa | - | - | - | - |
| 1787961988 | 16.11° C | 54% | 999.7 hPa | - | - | - | - |
| 1787961087 | 17.22° C | 53% | 1002.8 hPa | - | - | - | - |
| 1787960187 | 17.22° C | 51% | 1002.6 hPa | - | - | - | - |
| 1787959286 | 17.22° C | 49% | 1002.9 hPa | - | - | - | - |
| 1787958386 | 17.78° C | 48% | 1004 hPa | - | - | - | - |
| 1787957485 | 17.78° C | 47% | 1004.9 hPa | - | - | - | - |
| 1787956585 | 18.33° C | 45% | 1005.9 hPa | - | - | - | - |
| 1787955684 | 17.22° C | 44% | 1002.7 hPa | - | - | - | - |
| 1787953895 | 17.78° C | 42% | 1003.5 hPa | - | - | - | - |
| 1787952995 | 17.78° C | 41% | 1003.7 hPa | - | - | - | - |
| 1787952094 | 18.33° C | 40% | 1005.8 hPa | - | - | - | - |
| 1787951194 | 18.89° C | 39% | 1006.4 hPa | - | - | - | - |
| 1787950293 | 18.89° C | 38% | 1007.6 hPa | - | - | - | - |
* Rain since midnight (hover to see other rain measurements)
** Current wind speed in m/s (hover to see current wind gust speed)